Time,TemperatureF,DewpointF,PressureIn,WindDirection,WindDirectionDegrees,WindSpeedMPH,WindSpeedGustMPH,Humidity,HourlyPrecipIn,Conditions,Clouds,dailyrainin,SoftwareType,DateUTC
2013-05-22 00:01:00,63.2,57.9,29.72,North,0,0.0,0.0,83,0.00,,,0.00,WUHU216HW,2013-05-22 04:01:00,
2013-05-22 00:03:00,63.0,57.7,29.72,SW,225,0.5,0.7,83,0.00,,,0.00,WUHU216HW,2013-05-22 04:03:00,
2013-05-22 00:04:00,63.0,57.7,29.72,SW,225,0.7,1.1,83,0.00,,,0.00,WUHU216HW,2013-05-22 04:04:00,
2013-05-22 00:06:00,63.0,57.7,29.72,SW,225,0.5,0.9,83,0.00,,,0.00,WUHU216HW,2013-05-22 04:06:00,
2013-05-22 00:08:00,63.0,57.7,29.72,SW,225,0.5,0.9,83,0.00,,,0.00,WUHU216HW,2013-05-22 04:08:00,
2013-05-22 00:13:00,63.0,57.7,29.72,SW,225,0.1,0.4,83,0.00,,,0.00,WUHU216HW,2013-05-22 04:13:00,
2013-05-22 00:18:00,63.0,57.7,29.72,North,0,0.0,0.0,83,0.00,,,0.00,WUHU216HW,2013-05-22 04:18:00,
2013-05-22 00:23:00,63.0,57.7,29.72,North,0,0.0,0.0,83,0.00,,,0.00,WUHU216HW,2013-05-22 04:23:00,
2013-05-22 00:28:00,63.0,57.7,29.72,North,0,0.0,0.0,83,0.00,,,0.00,WUHU216HW,2013-05-22 04:28:00,
2013-05-22 00:33:00,62.8,57.5,29.72,North,0,0.0,0.0,83,0.00,,,0.00,WUHU216HW,2013-05-22 04:33:00,
2013-05-22 00:38:00,62.6,57.3,29.72,North,0,0.0,0.0,83,0.00,,,0.00,WUHU216HW,2013-05-22 04:38:00,
2013-05-22 00:43:00,62.6,57.3,29.72,North,0,0.0,0.0,83,0.00,,,0.00,WUHU216HW,2013-05-22 04:43:00,
2013-05-22 00:48:00,62.6,57.3,29.72,SW,225,0.3,0.4,83,0.00,,,0.00,WUHU216HW,2013-05-22 04:48:00,
2013-05-22 00:53:00,62.6,57.7,29.71,North,0,0.0,0.0,84,0.00,,,0.00,WUHU216HW,2013-05-22 04:53:00,
2013-05-22 00:58:00,62.6,57.7,29.71,North,0,0.0,0.0,84,0.00,,,0.00,WUHU216HW,2013-05-22 04:58:00,
2013-05-22 01:03:00,62.6,57.7,29.71,North,0,0.0,0.0,84,0.00,,,0.00,WUHU216HW,2013-05-22 05:03:00,
2013-05-22 01:08:00,62.6,57.7,29.71,North,0,0.0,0.0,84,0.00,,,0.00,WUHU216HW,2013-05-22 05:08:00,
2013-05-22 01:13:00,62.6,57.7,29.71,SSW,194,0.8,1.3,84,0.00,,,0.00,WUHU216HW,2013-05-22 05:13:00,
2013-05-22 01:18:00,62.6,57.7,29.71,SSW,203,0.3,0.4,84,0.00,,,0.00,WUHU216HW,2013-05-22 05:18:00,
2013-05-22 01:23:00,62.6,57.7,29.71,North,0,0.0,0.0,84,0.00,,,0.00,WUHU216HW,2013-05-22 05:23:00,
2013-05-22 01:28:00,62.6,57.7,29.71,North,0,0.0,0.0,84,0.00,,,0.00,WUHU216HW,2013-05-22 05:28:00,
2013-05-22 01:33:00,62.8,58.2,29.71,North,0,0.0,0.0,85,0.00,,,0.00,WUHU216HW,2013-05-22 05:33:00,
2013-05-22 01:38:00,63.0,58.4,29.71,North,0,0.0,0.0,85,0.00,,,0.00,WUHU216HW,2013-05-22 05:38:00,
2013-05-22 01:43:00,63.0,58.4,29.71,South,180,0.1,0.4,85,0.00,,,0.00,WUHU216HW,2013-05-22 05:43:00,
2013-05-22 01:48:00,63.2,58.6,29.70,SSE,158,0.2,0.4,85,0.00,,,0.00,WUHU216HW,2013-05-22 05:48:00,
2013-05-22 01:53:00,63.5,59.0,29.70,SE,132,0.4,0.4,85,0.00,,,0.00,WUHU216HW,2013-05-22 05:53:00,
2013-05-22 01:58:00,63.7,59.1,29.70,SE,144,0.7,1.1,85,0.00,,,0.00,WUHU216HW,2013-05-22 05:58:00,
2013-05-22 02:03:00,64.4,59.5,29.70,North,0,0.0,0.0,84,0.00,,,0.00,WUHU216HW,2013-05-22 06:03:00,
2013-05-22 02:08:00,64.6,59.7,29.70,NNW,338,0.1,0.4,84,0.00,,,0.00,WUHU216HW,2013-05-22 06:08:00,
2013-05-22 02:13:00,64.8,60.2,29.70,ESE,113,1.2,1.6,85,0.00,,,0.00,WUHU216HW,2013-05-22 06:13:00,
2013-05-22 02:18:00,64.8,60.2,29.70,North,0,0.0,0.0,85,0.00,,,0.00,WUHU216HW,2013-05-22 06:18:00,
2013-05-22 02:23:00,65.0,60.0,29.70,ENE,78,0.6,1.1,84,0.00,,,0.00,WUHU216HW,2013-05-22 06:23:00,
2013-05-22 02:28:00,65.3,60.4,29.70,WSW,243,2.2,4.3,84,0.00,,,0.00,WUHU216HW,2013-05-22 06:28:00,
2013-05-22 02:33:00,65.7,60.8,29.70,SW,227,2.5,3.4,84,0.00,,,0.00,WUHU216HW,2013-05-22 06:33:00,
2013-05-22 02:38:00,66.2,61.2,29.70,WNW,302,2.5,3.1,84,0.00,,,0.00,WUHU216HW,2013-05-22 06:38:00,
2013-05-22 02:43:00,66.6,61.6,29.69,SSW,210,1.1,1.8,84,0.00,,,0.00,WUHU216HW,2013-05-22 06:43:00,
2013-05-22 02:48:00,66.6,61.6,29.69,SW,225,0.6,1.3,84,0.00,,,0.00,WUHU216HW,2013-05-22 06:48:00,
2013-05-22 02:53:00,66.6,61.3,29.69,North,0,0.0,0.0,83,0.00,,,0.00,WUHU216HW,2013-05-22 06:53:00,
2013-05-22 02:59:00,66.6,61.3,29.69,WNW,294,0.8,1.1,83,0.00,,,0.00,WUHU216HW,2013-05-22 06:59:00,
2013-05-22 03:04:00,66.6,61.3,29.69,WSW,248,0.4,0.9,83,0.00,,,0.00,WUHU216HW,2013-05-22 07:04:00,
2013-05-22 03:09:00,66.6,61.3,29.69,SW,227,0.9,1.1,83,0.00,,,0.00,WUHU216HW,2013-05-22 07:09:00,
2013-05-22 03:14:00,66.4,61.1,29.70,SE,142,1.2,1.8,83,0.00,,,0.00,WUHU216HW,2013-05-22 07:14:00,
2013-05-22 03:19:00,66.2,60.9,29.69,North,0,0.0,0.0,83,0.00,,,0.00,WUHU216HW,2013-05-22 07:19:00,
2013-05-22 03:24:00,66.2,60.9,29.69,North,0,0.0,0.0,83,0.00,,,0.00,WUHU216HW,2013-05-22 07:24:00,
2013-05-22 03:29:00,66.1,60.8,29.70,North,0,0.0,0.0,83,0.00,,,0.00,WUHU216HW,2013-05-22 07:29:00,
2013-05-22 03:34:00,65.9,60.6,29.69,SW,225,0.1,0.2,83,0.00,,,0.00,WUHU216HW,2013-05-22 07:34:00,
2013-05-22 03:39:00,65.7,60.4,29.69,North,0,0.0,0.0,83,0.00,,,0.00,WUHU216HW,2013-05-22 07:39:00,
2013-05-22 03:44:00,65.5,60.6,29.69,SW,225,0.3,0.9,84,0.00,,,0.00,WUHU216HW,2013-05-22 07:44:00,
2013-05-22 03:49:00,65.3,60.4,29.69,SSW,195,0.5,0.7,84,0.00,,,0.00,WUHU216HW,2013-05-22 07:49:00,
2013-05-22 03:54:00,65.0,60.0,29.69,SW,225,0.1,0.4,84,0.00,,,0.00,WUHU216HW,2013-05-22 07:54:00,
2013-05-22 03:59:00,64.8,59.9,29.69,North,0,0.0,0.0,84,0.00,,,0.00,WUHU216HW,2013-05-22 07:59:00,
2013-05-22 04:04:00,64.4,59.1,29.69,North,0,0.0,0.0,83,0.00,,,0.00,WUHU216HW,2013-05-22 08:04:00,
2013-05-22 04:09:00,64.3,59.0,29.69,West,264,0.3,1.3,83,0.00,,,0.00,WUHU216HW,2013-05-22 08:09:00,
2013-05-22 04:14:00,64.1,58.8,29.69,North,0,0.0,0.0,83,0.00,,,0.00,WUHU216HW,2013-05-22 08:14:00,
2013-05-22 04:19:00,64.1,59.1,29.69,ESE,113,0.0,0.2,84,0.00,,,0.00,WUHU216HW,2013-05-22 08:19:00,
2013-05-22 04:24:00,64.3,59.3,29.68,North,0,0.0,0.0,84,0.00,,,0.00,WUHU216HW,2013-05-22 08:24:00,
2013-05-22 04:29:00,64.3,59.3,29.68,SW,225,0.4,0.7,84,0.00,,,0.00,WUHU216HW,2013-05-22 08:29:00,
2013-05-22 04:34:00,64.3,59.3,29.68,North,0,0.0,0.0,84,0.00,,,0.00,WUHU216HW,2013-05-22 08:34:00,
2013-05-22 04:39:00,64.3,59.3,29.68,North,0,0.0,0.0,84,0.00,,,0.00,WUHU216HW,2013-05-22 08:39:00,
2013-05-22 04:44:00,64.4,59.5,29.69,North,0,0.0,0.0,84,0.00,,,0.00,WUHU216HW,2013-05-22 08:44:00,
2013-05-22 04:49:00,64.3,59.3,29.68,North,0,0.0,0.0,84,0.00,,,0.00,WUHU216HW,2013-05-22 08:49:00,
2013-05-22 04:54:00,64.4,59.5,29.68,North,0,0.0,0.0,84,0.00,,,0.00,WUHU216HW,2013-05-22 08:54:00,
2013-05-22 04:59:00,64.4,59.5,29.69,North,0,0.0,0.0,84,0.00,,,0.00,WUHU216HW,2013-05-22 08:59:00,
2013-05-22 05:04:00,64.4,59.5,29.69,SSE,147,0.2,0.4,84,0.00,,,0.00,WUHU216HW,2013-05-22 09:04:00,
2013-05-22 05:09:00,64.4,59.5,29.69,SW,225,0.1,0.4,84,0.00,,,0.00,WUHU216HW,2013-05-22 09:09:00,
2013-05-22 05:14:00,64.6,59.7,29.69,ESE,123,0.3,0.9,84,0.00,,,0.00,WUHU216HW,2013-05-22 09:14:00,
2013-05-22 05:19:00,65.0,60.4,29.68,ESE,113,0.8,1.1,85,0.00,,,0.00,WUHU216HW,2013-05-22 09:19:00,
2013-05-22 05:24:00,65.2,60.6,29.68,North,0,0.0,0.0,85,0.00,,,0.00,WUHU216HW,2013-05-22 09:24:00,
2013-05-22 05:29:00,65.3,60.8,29.68,SW,225,0.5,0.7,85,0.00,,,0.00,WUHU216HW,2013-05-22 09:29:00,
2013-05-22 05:34:00,65.2,60.6,29.68,North,0,0.0,0.0,85,0.00,,,0.00,WUHU216HW,2013-05-22 09:34:00,
2013-05-22 05:39:00,65.2,60.6,29.67,East,97,0.4,0.4,85,0.00,,,0.00,WUHU216HW,2013-05-22 09:39:00,
2013-05-22 05:44:00,65.2,60.2,29.67,SE,135,0.6,0.7,84,0.00,,,0.00,WUHU216HW,2013-05-22 09:44:00,
2013-05-22 05:49:00,65.2,60.6,29.68,North,0,0.0,0.0,85,0.00,,,0.00,WUHU216HW,2013-05-22 09:49:00,
2013-05-22 05:54:00,65.2,60.6,29.68,SW,219,1.0,1.3,85,0.00,,,0.00,WUHU216HW,2013-05-22 09:54:00,
2013-05-22 05:59:00,65.2,60.6,29.68,SW,225,0.1,0.2,85,0.00,,,0.00,WUHU216HW,2013-05-22 09:59:00,
2013-05-22 06:04:00,65.3,60.8,29.68,North,0,0.0,0.0,85,0.00,,,0.00,WUHU216HW,2013-05-22 10:04:00,
2013-05-22 06:09:00,65.3,60.4,29.68,North,0,0.0,0.0,84,0.00,,,0.00,WUHU216HW,2013-05-22 10:09:00,
2013-05-22 06:14:00,65.2,60.6,29.69,SSW,203,0.1,0.4,85,0.00,,,0.00,WUHU216HW,2013-05-22 10:14:00,
2013-05-22 06:20:00,65.2,60.6,29.69,NNW,347,0.5,0.7,85,0.00,,,0.00,WUHU216HW,2013-05-22 10:20:00,
2013-05-22 06:25:00,65.3,60.8,29.69,SW,229,0.8,1.1,85,0.00,,,0.00,WUHU216HW,2013-05-22 10:25:00,
2013-05-22 06:30:00,65.5,60.8,29.69,WSW,242,1.4,2.9,85,0.00,,,0.00,WUHU216HW,2013-05-22 10:30:00,
2013-05-22 06:35:00,65.5,60.8,29.69,SSW,207,0.7,1.6,85,0.00,,,0.00,WUHU216HW,2013-05-22 10:35:00,
2013-05-22 06:40:00,65.7,60.8,29.69,South,173,1.5,2.5,84,0.00,,,0.00,WUHU216HW,2013-05-22 10:40:00,
2013-05-22 06:45:00,65.7,60.8,29.69,SW,215,2.6,4.9,84,0.00,,,0.00,WUHU216HW,2013-05-22 10:45:00,
2013-05-22 06:50:00,65.9,60.9,29.69,SSW,211,3.0,4.0,84,0.00,,,0.00,WUHU216HW,2013-05-22 10:50:00,
2013-05-22 06:55:00,65.9,60.9,29.69,West,266,0.6,1.8,84,0.00,,,0.00,WUHU216HW,2013-05-22 10:55:00,
2013-05-22 07:00:00,65.9,60.9,29.69,SW,235,2.0,2.7,84,0.00,,,0.00,WUHU216HW,2013-05-22 11:00:00,
2013-05-22 07:05:00,66.1,61.0,29.70,SW,226,1.4,2.5,84,0.00,,,0.00,WUHU216HW,2013-05-22 11:05:00,
2013-05-22 07:10:00,66.1,61.0,29.70,ESE,119,0.8,1.6,84,0.00,,,0.00,WUHU216HW,2013-05-22 11:10:00,
2013-05-22 07:15:00,66.2,61.2,29.69,South,186,1.8,2.9,84,0.00,,,0.00,WUHU216HW,2013-05-22 11:15:00,
2013-05-22 07:20:00,66.2,61.2,29.70,SW,218,0.5,1.6,84,0.00,,,0.00,WUHU216HW,2013-05-22 11:20:00,
2013-05-22 07:25:00,66.2,61.2,29.70,South,171,0.9,1.8,84,0.00,,,0.00,WUHU216HW,2013-05-22 11:25:00,
2013-05-22 07:30:00,66.2,61.2,29.70,South,178,0.5,1.1,84,0.00,,,0.00,WUHU216HW,2013-05-22 11:30:00,
2013-05-22 07:35:00,66.2,61.2,29.70,South,191,0.7,0.9,84,0.00,,,0.00,WUHU216HW,2013-05-22 11:35:00,
2013-05-22 07:40:00,66.4,61.4,29.70,SW,219,0.4,0.4,84,0.00,,,0.00,WUHU216HW,2013-05-22 11:40:00,
2013-05-22 07:45:00,66.4,61.4,29.70,SE,136,1.1,1.6,84,0.00,,,0.00,WUHU216HW,2013-05-22 11:45:00,
2013-05-22 07:50:00,66.6,61.6,29.70,SSE,147,1.0,1.1,84,0.00,,,0.00,WUHU216HW,2013-05-22 11:50:00,
2013-05-22 07:55:00,66.8,61.7,29.70,SW,225,1.8,2.5,84,0.00,,,0.00,WUHU216HW,2013-05-22 11:55:00,
2013-05-22 08:00:00,67.0,61.9,29.70,SW,234,2.8,3.1,84,0.00,,,0.00,WUHU216HW,2013-05-22 12:00:00,
2013-05-22 08:05:00,67.0,61.9,29.70,SSE,153,0.4,0.4,84,0.00,,,0.00,WUHU216HW,2013-05-22 12:05:00,
2013-05-22 08:10:00,67.1,62.1,29.70,SSE,149,0.6,0.7,84,0.00,,,0.00,WUHU216HW,2013-05-22 12:10:00,
2013-05-22 08:15:00,67.3,62.3,29.70,SE,141,0.4,2.2,84,0.00,,,0.00,WUHU216HW,2013-05-22 12:15:00,
2013-05-22 08:20:00,67.5,62.5,29.70,SW,235,2.2,2.5,84,0.00,,,0.00,WUHU216HW,2013-05-22 12:20:00,
2013-05-22 08:25:00,67.7,62.6,29.70,SW,227,2.7,3.6,84,0.00,,,0.00,WUHU216HW,2013-05-22 12:25:00,
2013-05-22 08:30:00,67.9,62.8,29.70,SW,216,0.6,1.1,84,0.00,,,0.00,WUHU216HW,2013-05-22 12:30:00,
2013-05-22 08:35:00,68.2,63.2,29.70,SW,215,1.2,1.8,84,0.00,,,0.00,WUHU216HW,2013-05-22 12:35:00,
2013-05-22 08:40:00,68.4,63.4,29.70,NNW,331,0.2,0.4,84,0.00,,,0.00,WUHU216HW,2013-05-22 12:40:00,
2013-05-22 08:45:00,68.6,63.5,29.70,WSW,238,2.6,3.6,84,0.00,,,0.00,WUHU216HW,2013-05-22 12:45:00,
2013-05-22 08:50:00,68.8,63.7,29.69,West,260,0.7,1.3,84,0.00,,,0.00,WUHU216HW,2013-05-22 12:50:00,
2013-05-22 08:55:00,69.3,64.3,29.69,South,188,0.5,0.7,84,0.00,,,0.00,WUHU216HW,2013-05-22 12:55:00,
2013-05-22 09:00:00,69.8,64.4,29.69,SW,224,3.6,5.4,83,0.00,,,0.00,WUHU216HW,2013-05-22 13:00:00,
2013-05-22 09:05:00,70.2,64.7,29.69,SW,214,0.2,0.2,83,0.00,,,0.00,WUHU216HW,2013-05-22 13:05:00,
2013-05-22 09:10:00,70.7,65.0,29.69,SSW,211,2.2,2.7,82,0.00,,,0.00,WUHU216HW,2013-05-22 13:10:00,
2013-05-22 09:15:00,71.1,65.4,29.69,SSW,208,2.8,3.6,82,0.00,,,0.00,WUHU216HW,2013-05-22 13:15:00,
2013-05-22 09:20:00,70.9,64.8,29.69,SSW,205,2.5,5.4,81,0.00,,,0.00,WUHU216HW,2013-05-22 13:20:00,
2013-05-22 09:25:00,71.1,65.0,29.69,WSW,242,1.1,1.3,81,0.00,,,0.00,WUHU216HW,2013-05-22 13:25:00,
2013-05-22 09:30:00,71.6,65.5,29.68,South,173,2.3,3.8,81,0.00,,,0.00,WUHU216HW,2013-05-22 13:30:00,
2013-05-22 09:36:00,72.4,65.9,29.68,SW,225,5.2,5.4,80,0.00,,,0.00,WUHU216HW,2013-05-22 13:36:00,
2013-05-22 09:41:00,73.1,67.0,29.68,SW,234,1.2,1.6,81,0.00,,,0.00,WUHU216HW,2013-05-22 13:41:00,
2013-05-22 09:46:00,73.6,67.1,29.68,SSW,211,1.9,3.4,80,0.00,,,0.00,WUHU216HW,2013-05-22 13:46:00,
2013-05-22 09:51:00,73.8,67.0,29.68,ESE,107,2.2,4.7,79,0.00,,,0.00,WUHU216HW,2013-05-22 13:51:00,
2013-05-22 09:56:00,73.4,66.3,29.68,SW,233,7.9,10.5,78,0.00,,,0.00,WUHU216HW,2013-05-22 13:56:00,
2013-05-22 10:01:00,72.7,65.5,29.68,SSW,210,3.0,5.1,78,0.00,,,0.00,WUHU216HW,2013-05-22 14:01:00,
2013-05-22 10:06:00,72.4,64.7,29.68,SE,145,1.6,2.5,77,0.00,,,0.00,WUHU216HW,2013-05-22 14:06:00,
2013-05-22 10:11:00,72.2,65.0,29.67,SW,227,1.3,1.8,78,0.00,,,0.00,WUHU216HW,2013-05-22 14:11:00,
2013-05-22 10:16:00,72.2,65.0,29.67,SW,219,0.6,1.1,78,0.00,,,0.00,WUHU216HW,2013-05-22 14:16:00,
2013-05-22 10:21:00,72.4,65.2,29.68,SSW,192,1.8,2.0,78,0.00,,,0.00,WUHU216HW,2013-05-22 14:21:00,
2013-05-22 10:26:00,72.4,65.2,29.68,South,181,2.2,3.1,78,0.00,,,0.00,WUHU216HW,2013-05-22 14:26:00,
2013-05-22 10:31:00,72.5,65.7,29.68,SW,231,3.4,5.1,79,0.00,,,0.00,WUHU216HW,2013-05-22 14:31:00,
2013-05-22 10:36:00,72.4,65.2,29.68,South,177,0.7,4.0,78,0.00,,,0.00,WUHU216HW,2013-05-22 14:36:00,
2013-05-22 10:41:00,72.4,65.2,29.67,SSW,199,1.1,2.2,78,0.00,,,0.00,WUHU216HW,2013-05-22 14:41:00,
2013-05-22 10:46:00,72.5,65.7,29.67,SW,224,2.8,3.8,79,0.00,,,0.00,WUHU216HW,2013-05-22 14:46:00,
2013-05-22 10:51:00,72.7,65.9,29.68,SW,226,2.5,3.4,79,0.00,,,0.00,WUHU216HW,2013-05-22 14:51:00,
2013-05-22 10:56:00,72.4,65.2,29.68,South,185,1.7,4.0,78,0.00,,,0.00,WUHU216HW,2013-05-22 14:56:00,
2013-05-22 11:01:00,72.0,64.8,29.67,South,177,2.8,3.4,78,0.00,,,0.00,WUHU216HW,2013-05-22 15:01:00,
2013-05-22 11:06:00,71.5,64.3,29.68,SW,220,4.3,5.4,78,0.00,,,0.00,WUHU216HW,2013-05-22 15:06:00,
2013-05-22 11:11:00,71.3,64.5,29.67,SSE,162,2.3,3.6,79,0.00,,,0.00,WUHU216HW,2013-05-22 15:11:00,
2013-05-22 11:16:00,71.3,64.5,29.67,SSE,168,3.4,4.3,79,0.00,,,0.00,WUHU216HW,2013-05-22 15:16:00,
2013-05-22 11:21:00,71.3,64.5,29.67,SW,215,3.4,4.0,79,0.00,,,0.00,WUHU216HW,2013-05-22 15:21:00,
2013-05-22 11:26:00,71.1,64.3,29.67,SE,146,0.6,2.0,79,0.00,,,0.00,WUHU216HW,2013-05-22 15:26:00,
2013-05-22 11:31:00,71.1,64.3,29.67,WSW,248,1.5,1.8,79,0.00,,,0.00,WUHU216HW,2013-05-22 15:31:00,
2013-05-22 11:36:00,70.9,64.1,29.67,SSW,198,3.4,7.6,79,0.00,,,0.00,WUHU216HW,2013-05-22 15:36:00,
2013-05-22 11:41:00,70.7,63.9,29.67,SW,215,2.3,3.6,79,0.00,,,0.00,WUHU216HW,2013-05-22 15:41:00,
2013-05-22 11:46:00,70.9,64.1,29.67,SSW,193,3.4,4.0,79,0.00,,,0.00,WUHU216HW,2013-05-22 15:46:00,
2013-05-22 11:51:00,71.5,64.6,29.66,SW,215,1.6,1.8,79,0.00,,,0.00,WUHU216HW,2013-05-22 15:51:00,
2013-05-22 11:56:00,71.6,64.8,29.66,WNW,283,2.4,3.6,79,0.00,,,0.00,WUHU216HW,2013-05-22 15:56:00,
2013-05-22 12:01:00,71.6,64.5,29.66,SSW,194,4.6,5.6,78,0.00,,,0.00,WUHU216HW,2013-05-22 16:01:00,
2013-05-22 12:06:00,71.5,64.3,29.66,SSW,203,1.8,2.5,78,0.00,,,0.00,WUHU216HW,2013-05-22 16:06:00,
2013-05-22 12:11:00,71.8,64.6,29.66,SSW,203,2.0,3.4,78,0.00,,,0.00,WUHU216HW,2013-05-22 16:11:00,
2013-05-22 12:16:00,72.5,65.7,29.65,SSW,208,3.6,4.5,79,0.00,,,0.00,WUHU216HW,2013-05-22 16:16:00,
2013-05-22 12:21:00,72.7,65.5,29.65,SW,216,1.6,2.5,78,0.00,,,0.00,WUHU216HW,2013-05-22 16:21:00,
2013-05-22 12:26:00,72.4,64.7,29.66,South,188,3.0,3.8,77,0.00,,,0.00,WUHU216HW,2013-05-22 16:26:00,
2013-05-22 12:31:00,71.6,64.0,29.65,WSW,252,1.2,2.5,77,0.00,,,0.00,WUHU216HW,2013-05-22 16:31:00,
2013-05-22 12:36:00,70.7,63.1,29.66,SSW,207,2.8,4.7,77,0.01,,,0.01,WUHU216HW,2013-05-22 16:36:00,
2013-05-22 12:41:00,70.4,63.6,29.66,SW,224,2.0,3.4,79,0.01,,,0.01,WUHU216HW,2013-05-22 16:41:00,
2013-05-22 12:47:00,70.2,63.7,29.66,SW,224,2.8,3.4,80,0.01,,,0.01,WUHU216HW,2013-05-22 16:47:00,
2013-05-22 12:52:00,70.6,64.1,29.65,South,185,1.3,2.5,80,0.01,,,0.01,WUHU216HW,2013-05-22 16:52:00,
2013-05-22 12:57:00,70.6,64.1,29.65,SSW,196,3.2,4.0,80,0.01,,,0.01,WUHU216HW,2013-05-22 16:57:00,
2013-05-22 13:02:00,70.9,64.4,29.65,SSW,192,3.9,6.7,80,0.01,,,0.01,WUHU216HW,2013-05-22 17:02:00,
2013-05-22 13:07:00,71.1,64.3,29.65,South,188,1.6,2.7,79,0.01,,,0.01,WUHU216HW,2013-05-22 17:07:00,
2013-05-22 13:12:00,71.8,65.0,29.65,WSW,241,1.9,4.7,79,0.01,,,0.01,WUHU216HW,2013-05-22 17:12:00,
2013-05-22 13:17:00,73.3,66.4,29.65,South,185,5.6,7.8,79,0.01,,,0.01,WUHU216HW,2013-05-22 17:17:00,
2013-05-22 13:22:00,74.2,66.9,29.65,SSE,159,1.8,4.3,78,0.01,,,0.01,WUHU216HW,2013-05-22 17:22:00,
2013-05-22 13:27:00,74.9,66.1,29.64,SSW,213,5.4,7.6,74,0.01,,,0.01,WUHU216HW,2013-05-22 17:27:00,
2013-05-22 13:32:00,74.3,65.5,29.64,WSW,240,3.6,4.3,74,0.01,,,0.01,WUHU216HW,2013-05-22 17:32:00,
2013-05-22 13:37:00,74.2,65.3,29.64,SW,231,5.3,7.6,74,0.00,,,0.01,WUHU216HW,2013-05-22 17:37:00,
2013-05-22 13:42:00,74.7,65.5,29.64,SW,214,6.7,9.2,73,0.00,,,0.01,WUHU216HW,2013-05-22 17:42:00,
2013-05-22 13:47:00,75.1,65.8,29.63,North,5,2.2,2.9,73,0.00,,,0.01,WUHU216HW,2013-05-22 17:47:00,
2013-05-22 13:52:00,74.7,65.5,29.63,SSW,203,4.6,6.0,73,0.00,,,0.01,WUHU216HW,2013-05-22 17:52:00,
2013-05-22 13:57:00,73.8,64.3,29.63,SSW,213,5.3,9.4,72,0.00,,,0.01,WUHU216HW,2013-05-22 17:57:00,
2013-05-22 14:02:00,72.7,63.2,29.63,South,185,6.9,8.3,72,0.00,,,0.01,WUHU216HW,2013-05-22 18:02:00,
2013-05-22 14:07:00,72.7,64.0,29.63,WSW,239,2.5,3.4,74,0.00,,,0.01,WUHU216HW,2013-05-22 18:07:00,
2013-05-22 14:12:00,73.8,65.1,29.63,SSE,168,3.9,6.3,74,0.00,,,0.01,WUHU216HW,2013-05-22 18:12:00,
2013-05-22 14:17:00,74.3,65.2,29.63,SSW,213,2.5,4.0,73,0.00,,,0.01,WUHU216HW,2013-05-22 18:17:00,
2013-05-22 14:22:00,74.9,65.6,29.63,SSW,207,3.7,4.7,73,0.00,,,0.01,WUHU216HW,2013-05-22 18:22:00,
2013-05-22 14:27:00,74.9,64.9,29.63,SW,219,6.4,8.3,71,0.00,,,0.01,WUHU216HW,2013-05-22 18:27:00,
2013-05-22 14:32:00,74.5,64.5,29.63,SW,222,6.1,9.8,71,0.00,,,0.01,WUHU216HW,2013-05-22 18:32:00,
2013-05-22 14:37:00,74.5,64.9,29.62,South,186,3.7,5.4,72,0.00,,,0.01,WUHU216HW,2013-05-22 18:37:00,
2013-05-22 14:42:00,74.5,64.5,29.62,SW,225,3.2,4.7,71,0.00,,,0.01,WUHU216HW,2013-05-22 18:42:00,
2013-05-22 14:47:00,74.2,64.2,29.63,SW,223,5.1,8.5,71,0.00,,,0.01,WUHU216HW,2013-05-22 18:47:00,
2013-05-22 14:52:00,73.3,63.4,29.63,WSW,237,6.5,7.2,71,0.00,,,0.01,WUHU216HW,2013-05-22 18:52:00,
2013-05-22 14:57:00,73.6,64.9,29.62,WSW,237,4.1,7.4,74,0.00,,,0.01,WUHU216HW,2013-05-22 18:57:00,
2013-05-22 15:02:00,76.0,67.1,29.62,SSW,212,5.4,6.3,74,0.00,,,0.01,WUHU216HW,2013-05-22 19:02:00,
2013-05-22 15:07:00,77.0,66.2,29.61,SW,220,5.1,8.5,69,0.00,,,0.01,WUHU216HW,2013-05-22 19:07:00,
2013-05-22 15:12:00,76.7,64.4,29.62,WSW,239,9.6,13.4,66,0.00,,,0.01,WUHU216HW,2013-05-22 19:12:00,
2013-05-22 15:17:00,75.6,63.8,29.62,SSW,211,5.2,8.5,67,0.00,,,0.01,WUHU216HW,2013-05-22 19:17:00,
2013-05-22 15:23:00,75.6,64.7,29.61,West,261,9.5,11.0,69,0.00,,,0.01,WUHU216HW,2013-05-22 19:23:00,
2013-05-22 15:28:00,76.7,65.3,29.61,WSW,245,9.3,10.5,68,0.00,,,0.01,WUHU216HW,2013-05-22 19:28:00,
2013-05-22 15:33:00,77.8,66.3,29.61,SW,214,3.1,4.0,68,0.00,,,0.01,WUHU216HW,2013-05-22 19:33:00,
2013-05-22 15:38:00,78.7,66.8,29.61,SW,235,7.2,8.9,67,0.00,,,0.01,WUHU216HW,2013-05-22 19:38:00,
2013-05-22 15:43:00,79.2,66.4,29.61,WSW,242,7.3,10.7,65,0.00,,,0.01,WUHU216HW,2013-05-22 19:43:00,
2013-05-22 15:48:00,78.7,64.6,29.61,SW,223,9.0,10.5,62,0.00,,,0.01,WUHU216HW,2013-05-22 19:48:00,
2013-05-22 15:53:00,78.7,65.0,29.61,SW,235,9.2,11.2,63,0.00,,,0.01,WUHU216HW,2013-05-22 19:53:00,
2013-05-22 15:58:00,78.8,64.8,29.61,SW,227,4.8,7.6,62,0.00,,,0.01,WUHU216HW,2013-05-22 19:58:00,
2013-05-22 16:03:00,78.5,64.5,29.61,SSW,196,4.5,6.9,62,0.00,,,0.01,WUHU216HW,2013-05-22 20:03:00,
2013-05-22 16:08:00,79.4,65.3,29.61,SW,220,7.8,11.0,62,0.00,,,0.01,WUHU216HW,2013-05-22 20:08:00,
2013-05-22 16:13:00,79.9,64.9,29.61,SW,223,4.7,8.5,60,0.00,,,0.01,WUHU216HW,2013-05-22 20:13:00,
2013-05-22 16:18:00,80.1,64.5,29.61,SW,223,8.1,12.1,59,0.00,,,0.01,WUHU216HW,2013-05-22 20:18:00,
2013-05-22 16:23:00,79.2,63.7,29.60,SSW,202,4.1,6.5,59,0.00,,,0.01,WUHU216HW,2013-05-22 20:23:00,
2013-05-22 16:28:00,78.8,63.9,29.60,SSE,147,3.5,6.3,60,0.00,,,0.01,WUHU216HW,2013-05-22 20:28:00,
2013-05-22 16:33:00,80.1,65.9,29.60,SW,214,6.5,9.8,62,0.00,,,0.01,WUHU216HW,2013-05-22 20:33:00,
2013-05-22 16:38:00,80.3,65.2,29.60,SW,225,6.6,7.2,60,0.00,,,0.01,WUHU216HW,2013-05-22 20:38:00,
2013-05-22 16:43:00,79.2,63.7,29.60,SW,226,3.0,5.4,59,0.00,,,0.01,WUHU216HW,2013-05-22 20:43:00,
2013-05-22 16:48:00,77.9,62.5,29.60,SW,233,2.8,3.4,59,0.00,,,0.01,WUHU216HW,2013-05-22 20:48:00,
2013-05-22 16:53:00,77.4,62.5,29.60,South,188,6.5,7.2,60,0.00,,,0.01,WUHU216HW,2013-05-22 20:53:00,
2013-05-22 16:58:00,77.0,61.6,29.60,SSW,206,7.4,9.6,59,0.00,,,0.01,WUHU216HW,2013-05-22 20:58:00,
2013-05-22 17:03:00,76.1,61.3,29.61,West,264,4.6,6.9,60,0.00,,,0.01,WUHU216HW,2013-05-22 21:03:00,
2013-05-22 17:08:00,73.6,60.2,29.62,West,273,2.6,3.6,63,0.00,,,0.01,WUHU216HW,2013-05-22 21:08:00,
2013-05-22 17:13:00,72.2,60.6,29.61,WSW,256,3.4,4.7,67,0.00,,,0.01,WUHU216HW,2013-05-22 21:13:00,
2013-05-22 17:18:00,71.6,60.9,29.62,West,267,3.0,5.4,69,0.00,,,0.01,WUHU216HW,2013-05-22 21:18:00,
2013-05-22 17:23:00,71.8,61.6,29.62,NW,310,2.4,3.4,70,0.00,,,0.01,WUHU216HW,2013-05-22 21:23:00,
2013-05-22 17:28:00,71.5,60.8,29.62,WSW,247,2.7,5.8,69,0.00,,,0.01,WUHU216HW,2013-05-22 21:28:00,
2013-05-22 17:33:00,70.9,60.2,29.62,West,274,2.7,4.5,69,0.00,,,0.01,WUHU216HW,2013-05-22 21:33:00,
2013-05-22 17:38:00,70.4,60.1,29.63,West,272,2.3,4.0,70,0.00,,,0.01,WUHU216HW,2013-05-22 21:38:00,
2013-05-22 17:43:00,69.8,59.9,29.62,NNW,336,1.7,2.7,71,0.00,,,0.01,WUHU216HW,2013-05-22 21:43:00,
2013-05-22 17:48:00,69.3,59.9,29.62,WSW,258,6.4,11.4,72,0.00,,,0.01,WUHU216HW,2013-05-22 21:48:00,
2013-05-22 17:53:00,68.8,60.1,29.62,WNW,299,3.5,4.5,74,0.00,,,0.01,WUHU216HW,2013-05-22 21:53:00,
2013-05-22 17:58:00,68.4,59.8,29.63,WSW,247,2.9,3.6,74,0.00,,,0.01,WUHU216HW,2013-05-22 21:58:00,
2013-05-22 18:03:00,68.2,60.0,29.63,WNW,285,1.9,2.7,75,0.00,,,0.01,WUHU216HW,2013-05-22 22:03:00,
2013-05-22 18:09:00,68.2,60.4,29.63,West,269,2.4,4.3,76,0.01,,,0.02,WUHU216HW,2013-05-22 22:09:00,
2013-05-22 18:14:00,68.2,60.8,29.63,WSW,244,2.3,2.7,77,0.01,,,0.02,WUHU216HW,2013-05-22 22:14:00,
2013-05-22 18:19:00,68.0,61.0,29.63,WNW,291,3.5,3.8,78,0.01,,,0.02,WUHU216HW,2013-05-22 22:19:00,
2013-05-22 18:24:00,68.0,61.0,29.63,SW,226,1.6,1.8,78,0.01,,,0.02,WUHU216HW,2013-05-22 22:24:00,
2013-05-22 18:29:00,67.5,60.9,29.63,NW,318,1.1,1.8,79,0.01,,,0.02,WUHU216HW,2013-05-22 22:29:00,
2013-05-22 18:34:00,67.3,60.7,29.64,WSW,247,1.1,2.5,79,0.02,,,0.03,WUHU216HW,2013-05-22 22:34:00,
2013-05-22 18:39:00,67.5,61.2,29.64,WSW,252,2.2,2.5,80,0.02,,,0.03,WUHU216HW,2013-05-22 22:39:00,
2013-05-22 18:44:00,67.5,61.2,29.64,SW,226,3.5,5.1,80,0.03,,,0.04,WUHU216HW,2013-05-22 22:44:00,
2013-05-22 18:49:00,67.3,61.0,29.64,SW,221,3.0,3.8,80,0.03,,,0.04,WUHU216HW,2013-05-22 22:49:00,
2013-05-22 18:54:00,67.1,61.2,29.64,SW,215,4.2,4.3,81,0.04,,,0.05,WUHU216HW,2013-05-22 22:54:00,
2013-05-22 18:59:00,66.8,60.9,29.64,WSW,248,3.9,4.9,81,0.04,,,0.05,WUHU216HW,2013-05-22 22:59:00,
2013-05-22 19:04:00,66.6,60.7,29.64,SW,216,1.6,4.0,81,0.05,,,0.06,WUHU216HW,2013-05-22 23:04:00,
2013-05-22 19:09:00,66.6,60.7,29.64,SW,217,2.6,3.8,81,0.04,,,0.06,WUHU216HW,2013-05-22 23:09:00,
2013-05-22 19:14:00,66.2,60.6,29.64,South,181,2.0,2.5,82,0.04,,,0.06,WUHU216HW,2013-05-22 23:14:00,
2013-05-22 19:19:00,66.2,60.6,29.64,SSW,212,0.9,2.5,82,0.05,,,0.07,WUHU216HW,2013-05-22 23:19:00,
2013-05-22 19:24:00,66.1,60.4,29.64,SW,232,0.6,1.1,82,0.05,,,0.07,WUHU216HW,2013-05-22 23:24:00,
2013-05-22 19:29:00,66.1,60.4,29.64,West,265,1.5,2.7,82,0.06,,,0.08,WUHU216HW,2013-05-22 23:29:00,
2013-05-22 19:34:00,66.2,60.6,29.63,SW,220,1.3,1.3,82,0.05,,,0.08,WUHU216HW,2013-05-22 23:34:00,
2013-05-22 19:39:00,66.2,60.6,29.63,SW,234,0.7,1.8,82,0.05,,,0.08,WUHU216HW,2013-05-22 23:39:00,
2013-05-22 19:44:00,66.6,60.9,29.64,WSW,248,0.5,1.1,82,0.04,,,0.08,WUHU216HW,2013-05-22 23:44:00,
2013-05-22 19:49:00,66.6,60.9,29.64,WSW,256,1.8,2.7,82,0.04,,,0.08,WUHU216HW,2013-05-22 23:49:00,
2013-05-22 19:54:00,66.6,60.9,29.64,SW,218,2.2,3.4,82,0.03,,,0.08,WUHU216HW,2013-05-22 23:54:00,
2013-05-22 19:59:00,66.6,60.9,29.64,SW,225,1.4,1.8,82,0.03,,,0.08,WUHU216HW,2013-05-22 23:59:00,
2013-05-22 20:04:00,66.6,60.9,29.64,South,184,1.5,2.5,82,0.02,,,0.08,WUHU216HW,2013-05-23 00:04:00,
2013-05-22 20:09:00,66.6,60.9,29.64,West,260,2.9,4.0,82,0.02,,,0.08,WUHU216HW,2013-05-23 00:09:00,
2013-05-22 20:14:00,66.2,60.6,29.64,SW,227,0.6,1.1,82,0.02,,,0.08,WUHU216HW,2013-05-23 00:14:00,
2013-05-22 20:19:00,65.9,60.2,29.64,SSW,210,1.7,3.4,82,0.01,,,0.08,WUHU216HW,2013-05-23 00:19:00,
2013-05-22 20:24:00,65.5,60.2,29.65,SSW,213,1.4,1.8,83,0.01,,,0.08,WUHU216HW,2013-05-23 00:24:00,
2013-05-22 20:29:00,65.3,60.0,29.64,SSW,203,0.6,1.1,83,0.00,,,0.08,WUHU216HW,2013-05-23 00:29:00,
2013-05-22 20:34:00,65.2,59.9,29.64,West,278,1.2,1.3,83,0.00,,,0.08,WUHU216HW,2013-05-23 00:34:00,
2013-05-22 20:39:00,64.8,59.9,29.65,WSW,248,1.8,2.5,84,0.00,,,0.08,WUHU216HW,2013-05-23 00:39:00,
2013-05-22 20:44:00,64.6,59.3,29.64,SSW,208,2.6,3.1,83,0.00,,,0.08,WUHU216HW,2013-05-23 00:44:00,
2013-05-22 20:49:00,64.4,59.1,29.64,SW,221,2.5,4.0,83,0.00,,,0.08,WUHU216HW,2013-05-23 00:49:00,
2013-05-22 20:54:00,64.3,59.0,29.65,SW,225,2.3,2.5,83,0.00,,,0.08,WUHU216HW,2013-05-23 00:54:00,
2013-05-22 20:59:00,64.1,58.8,29.64,SW,215,0.9,1.3,83,0.00,,,0.08,WUHU216HW,2013-05-23 00:59:00,
2013-05-22 21:04:00,63.7,58.4,29.65,SW,225,1.7,2.5,83,0.00,,,0.08,WUHU216HW,2013-05-23 01:04:00,
2013-05-22 21:09:00,63.7,58.4,29.65,SW,225,2.7,3.4,83,0.00,,,0.08,WUHU216HW,2013-05-23 01:09:00,
2013-05-22 21:14:00,63.5,58.2,29.65,SW,233,3.0,5.4,83,0.00,,,0.08,WUHU216HW,2013-05-23 01:14:00,
2013-05-22 21:19:00,63.4,58.4,29.65,SW,236,2.4,2.9,84,0.00,,,0.08,WUHU216HW,2013-05-23 01:19:00,
2013-05-22 21:25:00,63.2,58.2,29.65,West,265,3.8,6.3,84,0.00,,,0.08,WUHU216HW,2013-05-23 01:25:00,
2013-05-22 21:30:00,63.2,58.2,29.65,SW,227,4.6,6.9,84,0.00,,,0.08,WUHU216HW,2013-05-23 01:30:00,
2013-05-22 21:35:00,63.0,58.1,29.65,WSW,245,2.5,4.0,84,0.00,,,0.08,WUHU216HW,2013-05-23 01:35:00,
2013-05-22 21:40:00,63.0,58.1,29.65,West,279,3.4,5.1,84,0.00,,,0.08,WUHU216HW,2013-05-23 01:40:00,
2013-05-22 21:45:00,63.0,58.1,29.65,WSW,241,4.0,5.4,84,0.00,,,0.08,WUHU216HW,2013-05-23 01:45:00,
2013-05-22 21:50:00,63.0,58.1,29.65,WSW,254,5.3,6.9,84,0.00,,,0.08,WUHU216HW,2013-05-23 01:50:00,
2013-05-22 21:55:00,63.0,58.1,29.66,SW,229,1.0,2.2,84,0.00,,,0.08,WUHU216HW,2013-05-23 01:55:00,
2013-05-22 22:00:00,62.8,58.2,29.66,WSW,241,2.3,3.4,85,0.00,,,0.08,WUHU216HW,2013-05-23 02:00:00,
2013-05-22 22:05:00,62.8,58.2,29.66,WSW,243,2.5,3.8,85,0.00,,,0.08,WUHU216HW,2013-05-23 02:05:00,
2013-05-22 22:10:00,62.6,58.1,29.67,SW,233,3.7,4.0,85,0.00,,,0.08,WUHU216HW,2013-05-23 02:10:00,
2013-05-22 22:15:00,62.6,58.1,29.66,WSW,240,5.2,6.5,85,0.00,,,0.08,WUHU216HW,2013-05-23 02:15:00,
2013-05-22 22:20:00,62.8,58.2,29.67,SSW,207,3.0,3.6,85,0.00,,,0.08,WUHU216HW,2013-05-23 02:20:00,
2013-05-22 22:25:00,62.8,58.2,29.67,WSW,248,2.4,4.7,85,0.00,,,0.08,WUHU216HW,2013-05-23 02:25:00,
2013-05-22 22:30:00,63.0,58.4,29.66,WSW,248,3.0,3.4,85,0.00,,,0.08,WUHU216HW,2013-05-23 02:30:00,
2013-05-22 22:35:00,62.8,58.2,29.67,SW,221,2.7,4.3,85,0.00,,,0.08,WUHU216HW,2013-05-23 02:35:00,
2013-05-22 22:40:00,62.6,58.1,29.67,SSW,209,1.9,3.4,85,0.00,,,0.08,WUHU216HW,2013-05-23 02:40:00,
2013-05-22 22:45:00,62.6,58.1,29.66,SW,219,3.4,4.3,85,0.00,,,0.08,WUHU216HW,2013-05-23 02:45:00,
2013-05-22 22:50:00,62.6,58.1,29.67,SSW,213,2.1,2.5,85,0.00,,,0.08,WUHU216HW,2013-05-23 02:50:00,
2013-05-22 22:55:00,62.5,57.9,29.67,SW,225,3.2,6.7,85,0.00,,,0.08,WUHU216HW,2013-05-23 02:55:00,
2013-05-22 23:00:00,62.3,57.7,29.67,WSW,239,1.1,1.8,85,0.00,,,0.08,WUHU216HW,2013-05-23 03:00:00,
2013-05-22 23:05:00,62.3,57.7,29.67,SW,228,2.3,2.9,85,0.00,,,0.08,WUHU216HW,2013-05-23 03:05:00,
2013-05-22 23:10:00,62.3,57.7,29.67,WSW,240,2.9,4.0,85,0.00,,,0.08,WUHU216HW,2013-05-23 03:10:00,
2013-05-22 23:15:00,62.1,57.5,29.67,SW,225,1.7,2.0,85,0.00,,,0.08,WUHU216HW,2013-05-23 03:15:00,
2013-05-22 23:20:00,61.9,57.3,29.67,WSW,252,1.6,1.6,85,0.00,,,0.08,WUHU216HW,2013-05-23 03:20:00,
2013-05-22 23:25:00,61.7,57.2,29.67,SW,236,2.1,3.4,85,0.00,,,0.08,WUHU216HW,2013-05-23 03:25:00,
2013-05-22 23:30:00,61.6,57.3,29.67,West,266,1.5,2.0,86,0.00,,,0.08,WUHU216HW,2013-05-23 03:30:00,
2013-05-22 23:35:00,61.6,57.3,29.67,WSW,244,3.8,5.4,86,0.00,,,0.08,WUHU216HW,2013-05-23 03:35:00,
2013-05-22 23:40:00,61.4,57.2,29.67,WSW,237,2.8,3.1,86,0.00,,,0.08,WUHU216HW,2013-05-23 03:40:00,
2013-05-22 23:45:00,61.2,57.0,29.66,West,270,0.6,1.6,86,0.00,,,0.08,WUHU216HW,2013-05-23 03:45:00,
2013-05-22 23:50:00,61.0,56.9,29.67,WSW,248,1.3,2.5,86,0.00,,,0.08,WUHU216HW,2013-05-23 03:50:00,
2013-05-22 23:55:00,60.8,56.7,29.67,WSW,245,2.6,2.7,86,0.00,,,0.08,WUHU216HW,2013-05-23 03:55:00,